Time;durP1;ratioP1;P1;durP2;ratioP2;P2;SDS_P1;SDS_P2;PMS_P1;PMS_P2;Temp;Humidity;BMP_temperature;BMP_pressure;BME280_temperature;BME280_humidity;BME280_pressure;Samples;Min_cycle;Max_cycle;Signal;HPM_P1;HPM_P2
2021/01/27 00:02:05;;;;;;;9.27;6.53;;;;;;;2.63;100.00;98102.19;5117806;27;20780;-72
2021/01/27 00:04:33;;;;;;;9.87;6.80;;;;;;;2.54;100.00;98109.34;5132573;27;20222;-71
2021/01/27 00:06:59;;;;;;;10.00;6.70;;;;;;;2.52;100.00;98100.66;5115556;27;20301;-71
2021/01/27 00:09:29;;;;;;;9.50;6.53;;;;;;;2.57;100.00;98108.78;5133277;27;20251;-70
2021/01/27 00:11:56;;;;;;;10.27;6.97;;;;;;;2.85;100.00;98109.84;5115014;27;20286;-72
2021/01/27 00:14:22;;;;;;;9.67;6.77;;;;;;;2.80;100.00;98107.19;5132024;27;20219;-72
2021/01/27 00:16:49;;;;;;;13.80;7.50;;;;;;;2.59;100.00;98108.50;5133563;27;20264;-71
2021/01/27 00:19:15;;;;;;;11.23;7.33;;;;;;;2.75;100.00;98109.97;5133118;27;20231;-72
2021/01/27 00:21:41;;;;;;;13.23;6.30;;;;;;;2.76;100.00;98097.97;5133310;27;20846;-71
2021/01/27 00:24:08;;;;;;;9.63;7.10;;;;;;;2.84;100.00;98106.34;5132396;27;20650;-71
2021/01/27 00:26:34;;;;;;;10.57;6.70;;;;;;;2.75;100.00;98101.81;5132984;27;20203;-71
2021/01/27 00:29:03;;;;;;;8.83;6.40;;;;;;;2.74;100.00;98097.44;5133147;27;20223;-71
2021/01/27 00:31:32;;;;;;;9.83;6.90;;;;;;;2.81;100.00;98101.44;5132744;27;20299;-71
2021/01/27 00:33:58;;;;;;;9.73;6.40;;;;;;;2.82;100.00;98110.44;5113983;27;20207;-71
2021/01/27 00:36:24;;;;;;;8.03;6.67;;;;;;;2.74;100.00;98102.88;5133035;27;20209;-71
2021/01/27 00:38:50;;;;;;;9.80;6.90;;;;;;;2.68;100.00;98104.06;5114139;27;20647;-71
2021/01/27 00:41:17;;;;;;;7.93;6.73;;;;;;;2.83;100.00;98101.97;5132839;27;20211;-70
2021/01/27 00:43:43;;;;;;;9.53;6.90;;;;;;;2.80;100.00;98096.28;5132081;27;20466;-71
2021/01/27 00:46:09;;;;;;;11.17;6.80;;;;;;;2.74;100.00;98102.88;5132382;27;20686;-71
2021/01/27 00:48:35;;;;;;;9.43;6.77;;;;;;;2.55;100.00;98102.00;5132711;27;20230;-71
2021/01/27 00:51:01;;;;;;;9.37;6.67;;;;;;;2.67;100.00;98105.13;5132924;27;20210;-71
2021/01/27 00:53:27;;;;;;;9.23;6.87;;;;;;;2.89;100.00;98094.56;5131740;27;20575;-70
2021/01/27 00:55:56;;;;;;;10.47;6.57;;;;;;;2.93;100.00;98093.72;5132260;27;20595;-70
2021/01/27 00:58:22;;;;;;;7.83;6.60;;;;;;;2.96;100.00;98095.84;5132073;27;20238;-71
2021/01/27 01:34:12;;;;;;;9.90;7.33;;;;;;;2.66;100.00;98096.19;5123512;27;20525;-72
2021/01/27 01:36:38;;;;;;;12.13;7.90;;;;;;;2.82;100.00;98088.66;5110349;28;20235;-72
2021/01/27 01:39:04;;;;;;;12.33;7.47;;;;;;;2.55;100.00;98082.94;5108671;28;20284;-72
2021/01/27 01:41:30;;;;;;;9.47;7.00;;;;;;;2.83;100.00;98079.34;5108721;28;20212;-72
2021/01/27 01:43:57;;;;;;;11.17;7.33;;;;;;;2.88;100.00;98068.44;5107660;28;20201;-71
2021/01/27 01:46:24;;;;;;;10.57;6.60;;;;;;;3.00;100.00;98066.09;5108053;28;20641;-72
2021/01/27 01:49:04;;;;;;;7.93;5.90;;;;;;;3.01;100.00;98063.06;5108310;28;20234;-71
2021/01/27 01:51:33;;;;;;;8.10;6.13;;;;;;;2.89;100.00;98065.41;5108431;28;20817;-72
2021/01/27 01:54:02;;;;;;;8.10;6.00;;;;;;;2.74;100.00;98071.00;5107574;28;20224;-72
2021/01/27 01:56:32;;;;;;;9.77;6.50;;;;;;;2.69;100.00;98070.25;5108438;28;20232;-71
2021/01/27 01:59:06;;;;;;;8.17;6.50;;;;;;;2.73;100.00;98068.59;5107629;28;20269;-72
2021/01/27 02:01:32;;;;;;;7.90;6.43;;;;;;;2.90;100.00;98074.41;5108096;28;20595;-72
2021/01/27 02:03:59;;;;;;;10.63;6.23;;;;;;;2.95;100.00;98069.72;5107532;28;20200;-71
2021/01/27 02:06:26;;;;;;;6.83;6.00;;;;;;;2.98;100.00;98060.13;5107979;28;20265;-72
2021/01/27 02:08:54;;;;;;;10.53;6.40;;;;;;;2.98;100.00;98060.94;5108172;28;20278;-71
2021/01/27 02:11:41;;;;;;;11.07;5.97;;;;;;;2.70;100.00;98066.44;5107011;28;20295;-72
2021/01/27 02:14:29;;;;;;;8.13;6.40;;;;;;;2.67;100.00;98064.28;5087025;28;20720;-71
2021/01/27 02:17:03;;;;;;;14.23;6.70;;;;;;;2.79;100.00;98065.50;5087889;28;20201;-71
2021/01/27 02:19:29;;;;;;;8.57;6.10;;;;;;;2.95;100.00;98058.81;5087288;28;20281;-71
2021/01/27 02:22:32;;;;;;;9.13;6.70;;;;;;;2.92;100.00;98062.09;5086313;28;20205;-71
2021/01/27 02:25:19;;;;;;;11.60;5.70;;;;;;;2.98;100.00;98050.03;5086629;28;20248;-71
2021/01/27 02:27:50;;;;;;;13.00;6.30;;;;;;;3.05;100.00;98055.13;5087558;28;20205;-71
2021/01/27 02:30:40;;;;;;;11.00;6.27;;;;;;;3.00;100.00;98052.47;5087062;28;20779;-71
2021/01/27 02:33:50;;;;;;;9.13;5.97;;;;;;;3.07;100.00;98042.03;5086386;28;20777;-70
2021/01/27 02:36:33;;;;;;;10.07;5.90;;;;;;;2.98;100.00;98035.59;5086998;28;20212;-72
2021/01/27 02:39:06;;;;;;;8.60;6.30;;;;;;;3.02;100.00;98045.63;5087894;28;20228;-71
2021/01/27 02:41:46;;;;;;;11.53;6.70;;;;;;;2.88;100.00;98043.91;5107387;28;20840;-72
2021/01/27 02:44:17;;;;;;;10.53;6.20;;;;;;;2.91;100.00;98037.88;5101082;28;20211;-71
2021/01/27 02:46:52;;;;;;;11.43;6.30;;;;;;;3.01;100.00;98043.22;5093676;28;20232;-73
2021/01/27 02:49:27;;;;;;;8.17;6.20;;;;;;;3.05;100.00;98046.94;5094001;28;20238;-70
2021/01/27 02:52:19;;;;;;;7.30;5.40;;;;;;;3.08;100.00;98041.72;5093933;28;20295;-72
2021/01/27 02:54:59;;;;;;;8.33;5.27;;;;;;;3.09;100.00;98045.28;5089868;28;20736;-71
2021/01/27 02:57:32;;;;;;;9.10;5.87;;;;;;;3.18;100.00;98040.78;5093538;28;20208;-71
2021/01/27 03:00:06;;;;;;;11.23;6.17;;;;;;;2.82;100.00;98034.16;5093813;28;20315;-70
2021/01/27 03:02:45;;;;;;;7.93;5.67;;;;;;;2.98;100.00;98033.69;5092961;28;20204;-70
2021/01/27 03:05:16;;;;;;;8.77;5.40;;;;;;;2.99;100.00;98023.59;5093915;28;20219;-72
2021/01/27 03:07:47;;;;;;;8.43;5.90;;;;;;;2.87;100.00;98034.09;5095341;28;20734;-71
2021/01/27 03:10:20;;;;;;;8.53;5.73;;;;;;;2.95;100.00;98025.28;5095978;28;21019;-71
2021/01/27 03:12:48;;;;;;;6.73;5.83;;;;;;;2.62;100.00;98026.19;5089890;28;20524;-72
2021/01/27 03:15:15;;;;;;;8.20;5.43;;;;;;;2.94;100.00;98020.91;5083755;28;20209;-72
2021/01/27 03:17:43;;;;;;;8.07;5.67;;;;;;;3.15;100.00;98025.03;5087523;28;20281;-70
2021/01/27 03:20:17;;;;;;;10.17;5.80;;;;;;;2.79;100.00;98013.75;5076133;28;20225;-70
2021/01/27 03:22:50;;;;;;;9.23;5.73;;;;;;;2.90;100.00;98030.81;5073254;28;20208;-71
2021/01/27 03:25:27;;;;;;;8.17;5.80;;;;;;;2.76;100.00;98038.03;5072993;28;20258;-71
2021/01/27 03:28:15;;;;;;;10.30;5.93;;;;;;;2.83;100.00;98036.59;5072979;28;20617;-71
2021/01/27 03:30:43;;;;;;;8.83;6.13;;;;;;;2.98;100.00;98033.69;5071673;28;20256;-71
2021/01/27 03:33:22;;;;;;;10.10;6.10;;;;;;;3.09;100.00;98048.00;5072351;28;20274;-71
2021/01/27 03:35:56;;;;;;;7.67;6.17;;;;;;;2.93;100.00;98041.13;5073464;28;20205;-71
2021/01/27 03:38:34;;;;;;;10.83;6.43;;;;;;;3.01;100.00;98040.47;5073075;28;20292;-72
2021/01/27 03:41:38;;;;;;;10.23;5.70;;;;;;;2.81;100.00;98032.53;5090352;28;20231;-72
2021/01/27 03:44:19;;;;;;;7.00;6.30;;;;;;;2.84;100.00;98032.78;5092330;28;20279;-71
2021/01/27 03:46:50;;;;;;;8.97;6.20;;;;;;;2.74;100.00;98041.06;5091561;28;20210;-70
2021/01/27 03:49:27;;;;;;;8.70;5.93;;;;;;;2.54;100.00;98040.44;5092871;28;20316;-72
2021/01/27 03:52:02;;;;;;;10.90;6.23;;;;;;;2.88;100.00;98038.44;5091790;28;20208;-71
2021/01/27 03:54:31;;;;;;;8.37;5.47;;;;;;;2.99;100.00;98032.56;5091747;28;20210;-71
2021/01/27 03:57:05;;;;;;;12.27;6.50;;;;;;;2.94;100.00;98026.38;5091359;28;20239;-71
2021/01/27 03:59:34;;;;;;;9.83;5.97;;;;;;;2.57;100.00;98027.09;5092272;28;20220;-72
2021/01/27 04:02:01;;;;;;;9.47;6.43;;;;;;;2.45;100.00;98029.38;5092523;28;20375;-72
2021/01/27 04:04:28;;;;;;;7.40;6.40;;;;;;;2.66;100.00;98032.72;5091383;28;20292;-70
2021/01/27 04:06:54;;;;;;;6.70;5.87;;;;;;;2.87;100.00;98028.63;5092409;28;20205;-71
2021/01/27 04:09:20;;;;;;;9.00;6.07;;;;;;;2.72;100.00;98034.28;5092260;28;20300;-72
2021/01/27 04:11:46;;;;;;;7.40;6.40;;;;;;;2.88;100.00;98024.84;5089752;28;20283;-71
2021/01/27 04:14:12;;;;;;;9.63;6.07;;;;;;;2.77;100.00;98020.59;5071189;28;20221;-72
2021/01/27 04:16:38;;;;;;;9.87;6.13;;;;;;;2.88;100.00;98019.38;5071676;28;20735;-71
2021/01/27 04:19:07;;;;;;;8.90;6.10;;;;;;;2.62;100.00;98020.75;5072126;28;20838;-71
2021/01/27 04:21:33;;;;;;;8.93;5.83;;;;;;;2.56;100.00;98019.19;5080225;28;20315;-71
2021/01/27 04:23:59;;;;;;;9.63;6.63;;;;;;;2.64;100.00;98022.09;5091584;28;20196;-72
2021/01/27 04:26:25;;;;;;;16.93;6.03;;;;;;;2.47;100.00;98010.03;5092149;28;20250;-72
2021/01/27 04:28:52;;;;;;;9.07;5.90;;;;;;;2.48;100.00;98015.16;5091961;28;20260;-71
2021/01/27 04:31:18;;;;;;;9.40;5.80;;;;;;;2.60;100.00;98020.22;5091808;28;20204;-70
2021/01/27 04:33:46;;;;;;;12.73;6.87;;;;;;;2.33;100.00;98009.09;5091002;28;20705;-72
2021/01/27 04:36:13;;;;;;;8.30;6.23;;;;;;;2.33;100.00;98015.34;5091825;28;20251;-72
2021/01/27 04:38:40;;;;;;;12.13;6.60;;;;;;;2.37;100.00;98019.13;5092996;28;20636;-72
2021/01/27 04:41:09;;;;;;;9.80;6.30;;;;;;;2.43;100.00;98015.22;5093124;28;20200;-73
2021/01/27 04:43:44;;;;;;;8.40;6.30;;;;;;;2.41;100.00;98009.25;5090595;28;20630;-73
2021/01/27 04:46:34;;;;;;;9.50;6.20;;;;;;;2.49;100.00;98007.81;5091250;28;20265;-72
2021/01/27 04:49:21;;;;;;;11.33;6.73;;;;;;;2.19;100.00;97999.97;5091752;28;20697;-71
2021/01/27 04:52:17;;;;;;;8.83;6.63;;;;;;;1.84;100.00;98006.53;5091676;28;20240;-69
2021/01/27 04:54:59;;;;;;;8.97;6.60;;;;;;;2.04;100.00;97995.47;5088628;28;20204;-70
2021/01/27 04:57:59;;;;;;;11.93;6.93;;;;;;;1.51;100.00;97997.28;5091923;28;20244;-70
2021/01/27 05:00:59;;;;;;;12.80;7.63;;;;;;;1.55;100.00;97992.06;5091744;28;20236;-70
2021/01/27 05:03:49;;;;;;;9.87;7.60;;;;;;;1.37;100.00;98001.69;5104443;28;20705;-73
2021/01/27 05:06:22;;;;;;;12.07;8.00;;;;;;;1.63;100.00;98010.50;5105607;28;20203;-71
2021/01/27 05:09:00;;;;;;;9.67;7.20;;;;;;;1.92;100.00;98001.28;5105035;28;20232;-72
2021/01/27 05:11:28;;;;;;;12.80;7.73;;;;;;;1.74;100.00;97996.53;5091650;28;20704;-72
2021/01/27 05:13:59;;;;;;;10.93;7.70;;;;;;;1.84;100.00;98004.59;5070632;28;20243;-70
2021/01/27 05:16:29;;;;;;;12.43;8.37;;;;;;;1.57;100.00;97996.13;5071175;28;20216;-70
2021/01/27 05:18:58;;;;;;;11.13;7.53;;;;;;;1.36;100.00;98000.09;5070718;28;20714;-70
2021/01/27 05:21:27;;;;;;;14.17;8.43;;;;;;;1.57;100.00;97990.69;5084066;28;20545;-70
2021/01/27 05:23:54;;;;;;;11.87;9.13;;;;;;;1.16;100.00;97989.34;5090332;28;20200;-72
2021/01/27 05:26:24;;;;;;;16.40;9.30;;;;;;;1.39;100.00;97988.63;5090146;28;20233;-72
2021/01/27 05:29:00;;;;;;;13.70;9.50;;;;;;;1.21;100.00;97981.16;5090410;28;20248;-72
2021/01/27 05:31:59;;;;;;;16.50;9.53;;;;;;;1.18;100.00;97976.28;5090960;28;20264;-71
2021/01/27 05:34:38;;;;;;;11.40;9.43;;;;;;;1.22;100.00;97974.63;5089823;28;20581;-72
2021/01/27 05:37:26;;;;;;;15.47;9.67;;;;;;;0.85;100.00;97977.81;5089467;28;20253;-73
2021/01/27 05:40:14;;;;;;;15.13;9.20;;;;;;;0.93;100.00;97979.94;5096363;28;20221;-73
2021/01/27 05:42:41;;;;;;;17.03;9.63;;;;;;;1.11;100.00;97981.22;5091027;28;20254;-73
2021/01/27 05:45:25;;;;;;;15.83;10.03;;;;;;;1.04;100.00;97967.94;5090213;28;20543;-72
2021/01/27 05:47:52;;;;;;;14.37;9.90;;;;;;;1.14;100.00;97975.22;5090391;28;20208;-70
2021/01/27 05:50:30;;;;;;;15.93;9.70;;;;;;;0.96;100.00;97973.16;5090470;28;20231;-72
2021/01/27 05:53:09;;;;;;;16.30;10.43;;;;;;;0.96;100.00;97978.56;5090086;28;20224;-72
2021/01/27 05:55:36;;;;;;;11.63;9.53;;;;;;;0.74;100.00;97981.66;5090630;28;20204;-71
2021/01/27 05:58:02;;;;;;;13.83;10.27;;;;;;;0.99;100.00;97978.84;5092412;28;20204;-72
2021/01/27 06:00:30;;;;;;;17.13;10.03;;;;;;;0.82;100.00;97974.84;5092066;28;20713;-70
2021/01/27 06:03:00;;;;;;;14.03;10.23;;;;;;;0.91;100.00;97973.19;5090248;28;20236;-72
2021/01/27 06:05:35;;;;;;;14.50;9.40;;;;;;;1.15;100.00;97967.88;5090773;28;20261;-72
2021/01/27 06:08:11;;;;;;;12.40;9.83;;;;;;;1.07;100.00;97972.00;5090580;28;20264;-72
2021/01/27 06:10:38;;;;;;;14.13;9.57;;;;;;;1.05;100.00;97971.47;5089447;28;20224;-72
2021/01/27 06:13:26;;;;;;;12.87;9.13;;;;;;;1.15;100.00;97967.88;5076882;28;20267;-72
2021/01/27 06:15:53;;;;;;;13.43;9.17;;;;;;;0.98;100.00;97973.69;5070971;28;20205;-70
2021/01/27 06:18:20;;;;;;;11.83;9.13;;;;;;;1.08;100.00;97970.09;5070472;28;20205;-71
2021/01/27 06:20:50;;;;;;;13.13;9.13;;;;;;;1.08;100.00;97973.59;5074630;28;20249;-71
2021/01/27 06:23:37;;;;;;;13.07;9.30;;;;;;;1.07;100.00;97974.72;5074827;28;20203;-70
2021/01/27 06:26:12;;;;;;;11.57;8.87;;;;;;;0.69;100.00;97970.03;5074936;28;20209;-71
2021/01/27 06:28:51;;;;;;;14.70;9.93;;;;;;;1.06;100.00;97967.66;5075070;28;20247;-71
2021/01/27 06:31:40;;;;;;;13.43;9.87;;;;;;;1.02;100.00;97972.03;5075609;28;20240;-71
2021/01/27 06:34:47;;;;;;;15.13;9.63;;;;;;;1.04;100.00;97969.81;5072902;28;20260;-70
2021/01/27 06:37:31;;;;;;;12.73;9.20;;;;;;;0.87;100.00;97970.22;5034660;28;20897;-71
2021/01/27 06:40:20;;;;;;;14.23;9.10;;;;;;;1.13;100.00;97973.59;5060339;28;20240;-71
2021/01/27 06:43:03;;;;;;;14.10;8.50;;;;;;;1.06;100.00;97975.78;5072875;28;20640;-70
2021/01/27 06:45:29;;;;;;;12.57;8.63;;;;;;;0.97;100.00;97972.03;5074085;28;20201;-72
2021/01/27 06:47:58;;;;;;;13.30;8.20;;;;;;;0.63;100.00;97971.13;5072674;28;20262;-72
2021/01/27 06:50:46;;;;;;;11.00;8.43;;;;;;;1.01;100.00;97967.69;5074176;28;20279;-71
2021/01/27 06:53:14;;;;;;;13.43;9.03;;;;;;;0.80;100.00;97968.88;5076060;28;20767;-71
2021/01/27 06:56:09;;;;;;;10.93;8.40;;;;;;;1.13;100.00;97962.75;5084097;28;20204;-72
2021/01/27 06:59:28;;;;;;;13.70;8.80;;;;;;;1.08;100.00;97967.38;5100995;28;20242;-72
2021/01/27 07:02:19;;;;;;;10.47;8.03;;;;;;;1.37;100.00;97969.06;5095262;28;20709;-70
2021/01/27 07:05:30;;;;;;;12.67;8.70;;;;;;;1.56;100.00;97961.88;5093112;28;20197;-73
2021/01/27 07:08:08;;;;;;;11.00;7.63;;;;;;;2.01;100.00;97958.75;5088872;28;20228;-71
2021/01/27 07:10:45;;;;;;;12.97;7.80;;;;;;;2.47;100.00;97953.66;5091564;28;20224;-71
2021/01/27 07:13:23;;;;;;;11.70;7.30;;;;;;;3.22;100.00;97946.41;5090967;28;20262;-70
2021/01/27 07:16:32;;;;;;;10.47;7.23;;;;;;;3.94;100.00;97945.00;5092840;28;20675;-70
2021/01/27 07:19:28;;;;;;;8.57;6.10;;;;;;;3.74;100.00;97934.44;5092957;28;20228;-70
2021/01/27 07:22:16;;;;;;;12.07;6.20;;;;;;;3.79;100.00;97928.88;5095680;28;20616;-70
2021/01/27 07:25:04;;;;;;;9.10;6.13;;;;;;;3.86;100.00;97929.31;5095504;28;20218;-70
2021/01/27 07:27:36;;;;;;;9.70;6.07;;;;;;;3.75;100.00;97936.84;5097176;28;20238;-71
2021/01/27 07:30:12;;;;;;;8.27;5.50;;;;;;;3.73;100.00;97930.88;5094418;28;20719;-71
2021/01/27 07:32:45;;;;;;;9.60;5.83;;;;;;;3.32;100.00;97935.34;5094242;28;20266;-72
2021/01/27 07:35:18;;;;;;;9.23;5.73;;;;;;;3.86;100.00;97924.66;5095502;28;20299;-70
2021/01/27 07:37:52;;;;;;;7.63;5.57;;;;;;;4.38;100.00;97919.91;5094598;28;20228;-71
2021/01/27 07:40:24;;;;;;;9.87;5.70;;;;;;;4.29;100.00;97916.25;5096479;28;20224;-70
2021/01/27 07:42:59;;;;;;;9.97;5.60;;;;;;;4.37;100.00;97912.81;5089882;28;20197;-71
2021/01/27 07:45:34;;;;;;;8.20;6.03;;;;;;;4.34;100.00;97918.88;5094464;28;20203;-70
2021/01/27 07:48:18;;;;;;;7.90;5.70;;;;;;;4.66;100.00;97902.38;5097561;28;20887;-70
2021/01/27 07:50:51;;;;;;;6.77;5.40;;;;;;;4.86;100.00;97910.16;5090455;28;20228;-71
2021/01/27 07:53:24;;;;;;;6.00;4.90;;;;;;;4.00;100.00;97920.03;5096809;28;20239;-71
2021/01/27 07:56:09;;;;;;;8.87;5.47;;;;;;;3.69;100.00;97920.84;5099540;28;20227;-71
2021/01/27 07:58:44;;;;;;;6.57;5.57;;;;;;;3.90;100.00;97925.69;5098840;28;20199;-70
2021/01/27 08:01:10;;;;;;;10.50;5.87;;;;;;;4.20;100.00;97934.44;5096329;28;20204;-72
2021/01/27 08:03:42;;;;;;;8.47;5.77;;;;;;;4.92;100.00;97928.06;5086234;28;20818;-70
2021/01/27 08:06:15;;;;;;;10.07;5.70;;;;;;;5.51;100.00;97927.81;5093990;28;20265;-71
2021/01/27 08:08:55;;;;;;;13.20;5.57;;;;;;;5.59;100.00;97923.53;5094999;28;20246;-71
2021/01/27 08:11:43;;;;;;;9.23;5.37;;;;;;;5.61;100.00;97924.84;5089917;28;20384;-71
2021/01/27 08:14:15;;;;;;;8.40;5.17;;;;;;;5.40;100.00;97929.16;5071802;28;20234;-71
2021/01/27 08:16:43;;;;;;;7.23;5.37;;;;;;;5.42;100.00;97928.88;5094372;28;20261;-71
2021/01/27 08:19:10;;;;;;;11.07;6.07;;;;;;;6.57;100.00;97923.16;5094323;28;20624;-71
2021/01/27 08:21:45;;;;;;;9.90;5.37;;;;;;;7.08;100.00;97928.00;5093337;28;20254;-70
2021/01/27 08:24:36;;;;;;;9.77;5.43;;;;;;;6.87;100.00;97927.00;5091682;28;20297;-71
2021/01/27 08:27:14;;;;;;;7.93;5.30;;;;;;;7.00;100.00;97926.06;5091156;28;20216;-71
2021/01/27 08:30:02;;;;;;;11.87;5.70;;;;;;;7.54;100.00;97930.16;5091355;28;20228;-71
2021/01/27 08:32:36;;;;;;;7.07;5.37;;;;;;;7.76;100.00;97933.56;5091112;28;20212;-72
2021/01/27 08:35:31;;;;;;;6.73;5.10;;;;;;;7.98;100.00;97932.56;5090651;28;20212;-71
2021/01/27 08:38:26;;;;;;;8.77;5.40;;;;;;;8.06;100.00;97929.00;5093802;28;20204;-71
2021/01/27 08:40:52;;;;;;;7.07;5.20;;;;;;;8.35;100.00;97931.06;5096940;28;20224;-74
2021/01/27 08:43:24;;;;;;;7.20;4.73;;;;;;;8.05;100.00;97925.44;5092787;28;20256;-73
2021/01/27 08:45:50;;;;;;;7.33;5.20;;;;;;;7.81;100.00;97927.09;5090466;28;20208;-74
2021/01/27 08:48:47;;;;;;;10.27;4.97;;;;;;;8.34;100.00;97922.00;5090996;28;20204;-73
2021/01/27 08:51:43;;;;;;;9.10;5.20;;;;;;;8.16;100.00;97921.22;5091172;28;20211;-72
2021/01/27 08:54:47;;;;;;;6.77;5.10;;;;;;;8.13;100.00;97910.88;5090170;28;20207;-72
2021/01/27 08:57:33;;;;;;;6.80;5.47;;;;;;;8.18;100.00;97916.19;5090997;28;20261;-72
2021/01/27 09:00:21;;;;;;;6.53;5.30;;;;;;;8.72;100.00;97922.03;5090283;28;20632;-72
2021/01/27 09:03:02;;;;;;;14.23;5.47;;;;;;;8.96;100.00;97909.28;5090022;28;20247;-73
2021/01/27 09:05:28;;;;;;;11.40;6.43;;;;;;;8.51;100.00;97926.63;5092871;28;20673;-71
2021/01/27 09:07:59;;;;;;;10.23;6.20;;;;;;;7.71;100.00;97919.19;5094436;28;20201;-72
2021/01/27 09:10:31;;;;;;;9.97;5.63;;;;;;;6.72;100.00;97913.72;5094804;28;20716;-74
2021/01/27 09:12:57;;;;;;;12.03;6.13;;;;;;;6.37;100.00;97920.97;5093973;28;20227;-70
2021/01/27 09:15:31;;;;;;;9.57;5.53;;;;;;;6.93;100.00;97917.50;5094116;28;20205;-73
2021/01/27 09:17:59;;;;;;;9.13;5.73;;;;;;;6.57;100.00;97919.66;5093679;28;20205;-72
2021/01/27 09:20:29;;;;;;;9.50;6.43;;;;;;;7.35;100.00;97915.94;5092053;28;20225;-72
2021/01/27 09:23:01;;;;;;;8.40;5.70;;;;;;;7.32;100.00;97911.91;5093433;28;20229;-72
2021/01/27 09:25:28;;;;;;;8.60;6.20;;;;;;;7.54;100.00;97914.50;5092648;28;20205;-71
2021/01/27 09:28:07;;;;;;;10.47;5.80;;;;;;;8.12;100.00;97920.25;5090508;28;20283;-73
2021/01/27 09:30:34;;;;;;;6.77;5.30;;;;;;;7.29;100.00;97912.53;5090973;28;20234;-73
2021/01/27 09:33:34;;;;;;;7.47;5.40;;;;;;;7.12;100.00;97907.84;5088988;28;20204;-74
2021/01/27 09:36:28;;;;;;;7.63;5.47;;;;;;;7.41;100.00;97901.72;5085953;28;20236;-73
2021/01/27 09:38:57;;;;;;;7.73;5.33;;;;;;;8.75;100.00;97894.66;5088317;28;20777;-74
2021/01/27 09:41:30;;;;;;;7.90;4.93;;;;;;;8.90;100.00;97896.06;5090863;28;20238;-74
2021/01/27 09:43:58;;;;;;;8.20;5.30;;;;;;;8.10;100.00;97900.53;5090268;28;20232;-74
2021/01/27 09:46:34;;;;;;;6.77;4.83;;;;;;;8.42;100.00;97888.19;5089529;28;20200;-73
2021/01/27 09:49:07;;;;;;;7.77;5.50;;;;;;;8.49;100.00;97884.91;5089396;28;20242;-73
2021/01/27 09:51:35;;;;;;;5.83;5.20;;;;;;;8.43;100.00;97889.78;5089814;28;20747;-72
2021/01/27 09:54:02;;;;;;;5.83;5.10;;;;;;;7.38;100.00;97894.16;5091858;28;20223;-71
2021/01/27 09:56:30;;;;;;;9.60;5.97;;;;;;;6.42;100.00;97898.13;5095566;28;20212;-72
2021/01/27 09:58:58;;;;;;;6.97;5.20;;;;;;;6.45;100.00;97892.00;5095943;28;20223;-72
2021/01/27 10:01:28;;;;;;;6.97;5.20;;;;;;;6.30;100.00;97882.28;5096361;28;20262;-72
2021/01/27 10:04:16;;;;;;;7.00;5.00;;;;;;;6.04;100.00;97884.06;5094302;28;20267;-72
2021/01/27 10:07:05;;;;;;;7.03;5.33;;;;;;;5.92;100.00;97875.63;5093273;28;20204;-71
2021/01/27 10:09:39;;;;;;;7.43;5.30;;;;;;;4.74;100.00;97868.88;5094292;28;20228;-71
2021/01/27 10:12:11;;;;;;;8.33;5.80;;;;;;;6.19;100.00;97869.97;5094054;28;20208;-71
2021/01/27 10:14:40;;;;;;;9.53;5.33;;;;;;;7.30;100.00;97870.25;5096578;28;20208;-71
2021/01/27 10:17:09;;;;;;;10.13;5.50;;;;;;;7.41;100.00;97870.75;5102395;28;20209;-71
2021/01/27 10:20:05;;;;;;;8.20;5.30;;;;;;;6.74;100.00;97892.25;5103050;28;20220;-71
2021/01/27 10:22:37;;;;;;;10.93;5.50;;;;;;;6.80;100.00;97867.13;5088505;28;20234;-71
2021/01/27 10:25:24;;;;;;;11.93;5.53;;;;;;;6.74;100.00;97867.59;5093513;28;20232;-71
2021/01/27 10:28:18;;;;;;;7.80;5.27;;;;;;;7.33;100.00;97863.31;5092696;28;20205;-72
2021/01/27 10:30:53;;;;;;;7.50;5.20;;;;;;;6.54;100.00;97851.72;5088603;28;20221;-72
2021/01/27 10:33:51;;;;;;;9.37;5.60;;;;;;;5.74;100.00;97841.84;5093708;28;20277;-71
2021/01/27 10:36:30;;;;;;;9.30;5.80;;;;;;;6.64;100.00;97835.78;5095554;28;20666;-70
2021/01/27 10:39:10;;;;;;;6.93;5.47;;;;;;;7.30;100.00;97842.00;5094567;28;20250;-71
2021/01/27 10:41:36;;;;;;;6.83;4.97;;;;;;;6.18;100.00;97848.38;5111755;27;20211;-71
2021/01/27 10:44:22;;;;;;;8.27;5.50;;;;;;;6.39;100.00;97850.22;5099288;27;20599;-71
2021/01/27 10:46:55;;;;;;;7.93;5.50;;;;;;;6.47;100.00;97845.91;5135291;27;20290;-71
2021/01/27 10:49:21;;;;;;;7.73;5.50;;;;;;;6.22;100.00;97841.16;5126733;27;20373;-71
2021/01/27 10:51:48;;;;;;;8.17;5.63;;;;;;;7.06;100.00;97837.00;5098038;28;20204;-70
2021/01/27 10:54:16;;;;;;;8.17;5.60;;;;;;;6.81;100.00;97837.75;5096824;28;20200;-70
2021/01/27 10:56:42;;;;;;;15.37;5.77;;;;;;;6.46;100.00;97833.34;5115478;28;20204;-70
2021/01/27 10:59:08;;;;;;;11.47;5.73;;;;;;;6.71;100.00;97832.59;5115424;28;20227;-71
2021/01/27 11:01:35;;;;;;;9.00;5.90;;;;;;;6.91;100.00;97827.31;5101214;28;20682;-71
2021/01/27 11:04:02;;;;;;;11.67;5.70;;;;;;;6.88;100.00;97829.84;5094862;28;20314;-71
2021/01/27 11:06:28;;;;;;;8.27;6.03;;;;;;;6.91;100.00;97830.03;5113548;28;20207;-70
2021/01/27 11:08:54;;;;;;;7.70;5.80;;;;;;;6.82;100.00;97831.97;5078715;28;20227;-70
2021/01/27 11:11:20;;;;;;;9.37;6.37;;;;;;;6.40;100.00;97827.19;5079793;28;20736;-69
2021/01/27 11:13:47;;;;;;;8.73;5.00;;;;;;;5.83;100.00;97823.56;5095559;28;20196;-70
2021/01/27 11:16:20;;;;;;;7.73;5.50;;;;;;;5.65;100.00;97827.31;5096046;28;20254;-70
2021/01/27 11:18:47;;;;;;;11.77;5.77;;;;;;;5.93;100.00;97815.06;5129244;27;20234;-70
2021/01/27 11:21:13;;;;;;;8.00;5.87;;;;;;;5.81;100.00;97828.53;5115633;27;20203;-70
2021/01/27 11:23:39;;;;;;;10.23;5.77;;;;;;;5.95;100.00;97815.56;5134016;27;20276;-70
2021/01/27 11:26:06;;;;;;;8.10;5.70;;;;;;;5.81;100.00;97820.31;5137842;27;20268;-70
2021/01/27 11:28:32;;;;;;;7.60;5.10;;;;;;;6.07;100.00;97809.50;5134688;27;20707;-70
2021/01/27 11:30:58;;;;;;;8.03;5.60;;;;;;;6.48;100.00;97807.22;5134878;27;20617;-69
2021/01/27 11:33:24;;;;;;;10.83;5.70;;;;;;;6.14;100.00;97805.19;5133884;27;20247;-70
2021/01/27 11:35:53;;;;;;;9.47;5.47;;;;;;;5.82;100.00;97801.97;5128015;27;20229;-69
2021/01/27 11:38:20;;;;;;;8.73;5.40;;;;;;;5.02;100.00;97802.06;5108212;28;20204;-69
2021/01/27 11:40:46;;;;;;;13.63;6.23;;;;;;;5.48;100.00;97802.56;5113509;28;20281;-69
2021/01/27 11:43:12;;;;;;;9.07;6.10;;;;;;;5.89;100.00;97789.44;5112837;28;20216;-71
2021/01/27 11:45:38;;;;;;;8.73;6.10;;;;;;;5.99;100.00;97797.38;5112246;28;20207;-71
2021/01/27 11:48:24;;;;;;;9.27;5.40;;;;;;;5.81;100.00;97790.19;5111934;28;20695;-70
2021/01/27 11:50:51;;;;;;;12.07;5.57;;;;;;;6.34;100.00;97792.00;5125526;27;20631;-71
2021/01/27 11:53:17;;;;;;;10.17;5.83;;;;;;;6.45;100.00;97782.38;5141046;27;20257;-71
2021/01/27 11:55:43;;;;;;;7.57;5.40;;;;;;;6.10;100.00;97782.28;5143546;27;20203;-71
2021/01/27 11:58:10;;;;;;;8.63;5.13;;;;;;;5.48;100.00;97777.13;5119719;27;20211;-71
2021/01/27 12:00:36;;;;;;;9.90;5.33;;;;;;;5.52;100.00;97769.91;5132335;27;20269;-71
2021/01/27 12:03:03;;;;;;;8.00;5.23;;;;;;;5.94;100.00;97766.59;5131585;27;20207;-70
2021/01/27 12:05:29;;;;;;;6.83;5.33;;;;;;;5.80;100.00;97755.72;5127527;27;20220;-72
2021/01/27 12:07:57;;;;;;;10.60;5.90;;;;;;;5.91;100.00;97757.06;5092516;28;20238;-71
2021/01/27 12:10:27;;;;;;;9.57;5.60;;;;;;;5.35;100.00;97753.38;5075499;28;20230;-72
2021/01/27 12:12:53;;;;;;;7.67;5.20;;;;;;;5.53;100.00;97750.44;5109847;28;20244;-70
2021/01/27 12:15:20;;;;;;;7.73;5.47;;;;;;;5.92;100.00;97755.97;5111402;28;20620;-71
2021/01/27 12:17:46;;;;;;;8.17;4.67;;;;;;;5.34;100.00;97758.06;5111119;28;20310;-72
2021/01/27 12:20:13;;;;;;;9.43;4.97;;;;;;;5.62;100.00;97754.00;5111651;28;20292;-71
2021/01/27 12:22:40;;;;;;;9.77;5.03;;;;;;;5.62;100.00;97751.28;5111773;28;20200;-71
2021/01/27 12:25:07;;;;;;;7.73;4.57;;;;;;;5.51;100.00;97752.66;5106639;27;20227;-70
2021/01/27 12:27:33;;;;;;;10.00;4.53;;;;;;;5.60;100.00;97745.31;5112810;28;20253;-73
2021/01/27 12:30:00;;;;;;;6.73;3.87;;;;;;;5.26;100.00;97750.59;5112477;28;20229;-73
2021/01/27 12:32:26;;;;;;;9.80;3.80;;;;;;;4.98;100.00;97743.66;5074332;28;20205;-75
2021/01/27 12:34:52;;;;;;;6.03;3.83;;;;;;;5.02;100.00;97744.63;5113382;27;20661;-73
2021/01/27 12:37:18;;;;;;;7.70;3.87;;;;;;;5.46;100.00;97736.38;5130932;27;20715;-73